createdAt,value
2023-03-30T00:00:53.105Z,7.00
2023-03-30T00:03:22.923Z,7.00
2023-03-30T00:05:51.859Z,6.90
2023-03-30T00:08:19.417Z,6.90
2023-03-30T00:10:46.865Z,7.00
2023-03-30T00:13:14.216Z,7.00
2023-03-30T00:15:41.381Z,7.00
2023-03-30T00:18:09.322Z,7.00
2023-03-30T00:20:37.810Z,7.10
2023-03-30T00:23:04.939Z,7.10
2023-03-30T00:25:31.818Z,7.10
2023-03-30T00:27:58.843Z,7.00
2023-03-30T00:30:26.021Z,7.00
2023-03-30T00:32:53.967Z,7.00
2023-03-30T00:35:21.128Z,7.00
2023-03-30T00:37:49.721Z,7.10
2023-03-30T00:40:20.603Z,7.10
2023-03-30T00:42:47.808Z,7.10
2023-03-30T00:45:22.548Z,7.20
2023-03-30T00:48:15.331Z,7.20
2023-03-30T00:50:50.028Z,7.20
2023-03-30T00:53:18.878Z,7.20
2023-03-30T00:55:49.274Z,7.20
2023-03-30T00:58:17.694Z,7.20
2023-03-30T01:00:47.306Z,7.10
2023-03-30T01:03:33.420Z,7.10
2023-03-30T01:06:03.422Z,7.20
2023-03-30T01:08:32.670Z,7.20
2023-03-30T01:11:04.250Z,7.10
2023-03-30T01:13:34.308Z,7.20
2023-03-30T01:16:10.147Z,7.20
2023-03-30T01:19:06.866Z,7.30
2023-03-30T01:22:01.750Z,7.20
2023-03-30T01:25:03.363Z,7.20
2023-03-30T01:27:58.041Z,7.30
2023-03-30T01:30:46.278Z,7.20
2023-03-30T01:33:31.590Z,7.10
2023-03-30T01:36:25.668Z,7.10
2023-03-30T01:39:23.088Z,7.00
2023-03-30T01:42:19.675Z,6.90
2023-03-30T01:45:20.334Z,6.90
2023-03-30T01:48:26.318Z,6.80
2023-03-30T01:50:57.384Z,6.80
2023-03-30T01:53:33.072Z,6.80
2023-03-30T01:56:14.047Z,6.80
2023-03-30T01:58:50.102Z,6.70
2023-03-30T02:01:20.888Z,6.70
2023-03-30T02:03:53.532Z,6.70
2023-03-30T02:06:26.629Z,6.70
2023-03-30T02:08:55.883Z,6.70
2023-03-30T02:11:26.456Z,6.70
2023-03-30T02:13:58.643Z,6.70
2023-03-30T02:16:34.620Z,6.60
2023-03-30T02:19:02.263Z,6.60
2023-03-30T02:21:30.155Z,6.60
2023-03-30T02:23:59.112Z,6.60
2023-03-30T02:26:27.376Z,6.50
2023-03-30T02:28:54.417Z,6.50
2023-03-30T02:31:21.419Z,6.30
2023-03-30T02:34:13.783Z,6.20
2023-03-30T02:37:24.289Z,6.20
2023-03-30T02:39:59.814Z,6.10
2023-03-30T02:42:43.738Z,6.00
2023-03-30T02:45:32.121Z,6.00
2023-03-30T02:47:58.996Z,6.00
2023-03-30T02:50:39.722Z,6.00
2023-03-30T02:53:45.571Z,6.00
2023-03-30T02:56:22.278Z,6.00
2023-03-30T02:58:56.766Z,5.90
2023-03-30T03:01:59.335Z,5.80
2023-03-30T03:04:29.098Z,5.80
2023-03-30T03:06:56.388Z,5.70
2023-03-30T03:09:26.174Z,5.70
2023-03-30T03:11:53.138Z,5.60
2023-03-30T03:14:20.851Z,5.50
2023-03-30T03:16:48.269Z,5.50
2023-03-30T03:19:16.131Z,5.40
2023-03-30T03:21:43.088Z,5.30
2023-03-30T03:24:13.429Z,5.30
2023-03-30T03:26:40.615Z,5.30
2023-03-30T03:29:07.520Z,5.30
2023-03-30T03:31:34.871Z,5.30
2023-03-30T03:34:02.120Z,5.30
2023-03-30T03:36:29.002Z,5.40
2023-03-30T03:38:55.884Z,5.40
2023-03-30T03:41:22.835Z,5.50
2023-03-30T03:43:49.809Z,5.60
2023-03-30T03:46:16.708Z,5.70
2023-03-30T03:48:43.616Z,5.60
2023-03-30T03:51:11.359Z,5.70
2023-03-30T03:53:38.297Z,5.80
2023-03-30T03:56:05.343Z,5.80
2023-03-30T03:58:32.288Z,5.80
2023-03-30T04:01:03.350Z,5.90
2023-03-30T04:03:30.870Z,5.90
2023-03-30T04:06:01.334Z,5.90
2023-03-30T04:08:29.127Z,5.90
2023-03-30T04:10:56.461Z,6.00
2023-03-30T04:13:23.465Z,6.00
2023-03-30T04:15:50.552Z,6.00
2023-03-30T04:18:17.874Z,6.00
2023-03-30T04:20:45.017Z,5.90
2023-03-30T04:23:22.041Z,6.00
2023-03-30T04:25:49.157Z,6.00
2023-03-30T04:28:16.067Z,6.00
2023-03-30T04:30:45.739Z,6.00
2023-03-30T04:33:14.712Z,6.10
2023-03-30T04:35:41.722Z,6.10
2023-03-30T04:38:09.036Z,6.10
2023-03-30T04:40:36.079Z,6.20
2023-03-30T04:43:04.172Z,6.20
2023-03-30T04:45:31.731Z,6.30
2023-03-30T04:47:58.731Z,6.30
2023-03-30T04:50:26.163Z,6.40
2023-03-30T04:52:53.101Z,6.40
2023-03-30T04:55:19.989Z,6.50
2023-03-30T04:57:47.081Z,6.50
2023-03-30T05:00:14.463Z,6.50
2023-03-30T05:02:41.523Z,6.60
2023-03-30T05:05:08.797Z,6.60
2023-03-30T05:07:36.096Z,6.70
2023-03-30T05:10:03.035Z,6.70
2023-03-30T05:12:29.929Z,6.70
2023-03-30T05:14:56.830Z,6.70
2023-03-30T05:17:23.854Z,6.80
2023-03-30T05:19:50.817Z,6.80
2023-03-30T05:22:17.726Z,6.80
2023-03-30T05:24:44.680Z,6.80
2023-03-30T05:27:12.816Z,6.90
2023-03-30T05:29:39.685Z,6.90
2023-03-30T05:32:06.637Z,7.00
2023-03-30T05:34:33.523Z,7.00
2023-03-30T05:37:00.403Z,7.20
2023-03-30T05:39:27.369Z,7.20
2023-03-30T05:41:54.285Z,7.30
2023-03-30T05:44:22.539Z,7.30
2023-03-30T05:46:49.936Z,7.30
2023-03-30T05:49:16.883Z,7.30
2023-03-30T05:51:43.759Z,7.30
2023-03-30T05:54:14.168Z,7.40
2023-03-30T05:56:42.532Z,7.50
2023-03-30T05:59:10.467Z,7.60
2023-03-30T06:01:37.913Z,7.70
2023-03-30T06:04:05.480Z,7.80
2023-03-30T06:06:32.482Z,7.90
2023-03-30T06:08:59.401Z,7.90
2023-03-30T06:11:26.357Z,8.00
2023-03-30T06:13:53.526Z,8.00
2023-03-30T06:16:21.532Z,8.00
2023-03-30T06:18:48.529Z,8.10
2023-03-30T06:21:15.652Z,8.30
2023-03-30T06:23:42.733Z,8.50
2023-03-30T06:26:10.166Z,8.60
2023-03-30T06:28:38.179Z,8.60
2023-03-30T06:31:09.906Z,8.70
2023-03-30T06:33:39.642Z,8.80
2023-03-30T06:36:12.015Z,8.80
2023-03-30T06:38:39.473Z,8.80
2023-03-30T06:41:10.103Z,8.90
2023-03-30T06:43:38.067Z,9.10
2023-03-30T06:46:06.133Z,9.40
2023-03-30T06:48:33.261Z,9.50
2023-03-30T06:51:00.587Z,9.60
2023-03-30T06:53:28.357Z,9.50
2023-03-30T06:55:57.588Z,9.50
2023-03-30T06:58:26.233Z,9.40
2023-03-30T07:00:54.294Z,9.30
2023-03-30T07:03:21.520Z,9.40
2023-03-30T07:05:49.577Z,9.50
2023-03-30T07:08:16.863Z,9.40
2023-03-30T07:10:43.826Z,9.30
2023-03-30T07:13:10.687Z,9.20
2023-03-30T07:15:37.624Z,9.30
2023-03-30T07:18:04.862Z,9.20
2023-03-30T07:20:31.788Z,9.10
2023-03-30T07:22:58.797Z,9.10
2023-03-30T07:25:25.672Z,9.10
2023-03-30T07:27:52.738Z,9.20
2023-03-30T07:30:22.880Z,9.10
2023-03-30T07:32:51.053Z,9.00
2023-03-30T07:35:18.676Z,9.10
2023-03-30T07:37:50.267Z,9.20
2023-03-30T07:40:18.091Z,9.40
2023-03-30T07:42:45.353Z,9.50
2023-03-30T07:45:14.884Z,9.70
2023-03-30T07:47:43.274Z,9.80
2023-03-30T07:50:10.602Z,9.90
2023-03-30T07:52:38.094Z,10.00
2023-03-30T07:55:05.433Z,10.30
2023-03-30T07:57:32.458Z,10.50
2023-03-30T07:59:59.635Z,10.40
2023-03-30T08:02:27.242Z,10.40
2023-03-30T08:04:54.521Z,10.30
2023-03-30T08:07:21.544Z,10.40
2023-03-30T08:09:48.428Z,10.60
2023-03-30T08:12:15.772Z,10.60
2023-03-30T08:14:42.651Z,10.80
2023-03-30T08:17:09.577Z,11.00
2023-03-30T08:19:36.441Z,11.30
2023-03-30T08:22:03.446Z,11.50
2023-03-30T08:24:30.411Z,11.70
2023-03-30T08:26:57.407Z,12.10
2023-03-30T08:29:24.386Z,12.60
2023-03-30T08:31:52.826Z,12.80
2023-03-30T08:34:20.034Z,12.70
2023-03-30T08:36:46.946Z,12.60
2023-03-30T08:39:13.889Z,12.50
2023-03-30T08:42:02.082Z,12.50
2023-03-30T08:44:39.452Z,12.50
2023-03-30T08:47:14.696Z,12.40
2023-03-30T08:49:59.608Z,12.10
2023-03-30T08:52:27.011Z,12.00
2023-03-30T08:54:54.110Z,12.10
2023-03-30T08:58:02.628Z,12.30
2023-03-30T09:00:53.562Z,12.30
2023-03-30T09:03:37.132Z,12.30
2023-03-30T09:06:14.260Z,12.10
2023-03-30T09:08:41.613Z,12.00
2023-03-30T09:11:19.022Z,12.00
2023-03-30T09:13:47.900Z,11.90
2023-03-30T09:16:23.159Z,11.70
2023-03-30T09:19:01.698Z,11.70
2023-03-30T09:21:31.768Z,11.70
2023-03-30T09:24:06.342Z,11.80
2023-03-30T09:27:02.949Z,11.80
2023-03-30T09:29:40.085Z,11.90
2023-03-30T09:32:30.922Z,11.90
2023-03-30T09:35:21.695Z,12.00
2023-03-30T09:37:48.741Z,12.10
2023-03-30T09:40:51.144Z,12.10
2023-03-30T09:43:43.684Z,12.30
2023-03-30T09:46:11.219Z,12.50
2023-03-30T09:48:43.713Z,12.50
2023-03-30T09:51:29.183Z,12.70
2023-03-30T09:54:04.541Z,12.90
2023-03-30T09:56:51.679Z,12.80
2023-03-30T09:59:32.852Z,12.60
2023-03-30T10:02:18.017Z,12.50
2023-03-30T10:04:53.979Z,12.70
2023-03-30T10:07:31.432Z,13.10
2023-03-30T10:10:01.218Z,13.20
2023-03-30T10:12:29.880Z,13.40
2023-03-30T10:15:06.686Z,13.60
2023-03-30T10:17:33.650Z,13.80
2023-03-30T10:20:17.983Z,14.00
2023-03-30T10:22:55.142Z,14.40
2023-03-30T10:25:27.307Z,14.50
2023-03-30T10:27:57.571Z,14.60
2023-03-30T10:30:27.914Z,14.90
2023-03-30T10:32:58.447Z,15.00
2023-03-30T10:35:30.934Z,15.00
2023-03-30T10:37:58.825Z,14.80
2023-03-30T10:40:41.581Z,14.70
2023-03-30T10:43:24.142Z,14.60
2023-03-30T10:45:55.438Z,14.50
2023-03-30T10:48:57.881Z,14.10
2023-03-30T10:51:52.464Z,13.90
2023-03-30T10:54:26.346Z,14.00
2023-03-30T10:57:17.054Z,14.30
2023-03-30T11:00:34.968Z,14.50
2023-03-30T11:03:21.005Z,14.50
2023-03-30T11:05:52.896Z,14.80
2023-03-30T11:08:30.575Z,14.80
2023-03-30T11:11:00.506Z,14.80
2023-03-30T11:13:33.116Z,15.00
2023-03-30T11:16:08.609Z,14.80
2023-03-30T11:18:42.773Z,14.80
2023-03-30T11:21:41.085Z,14.90
2023-03-30T11:24:28.890Z,15.00
2023-03-30T11:27:20.413Z,14.90
2023-03-30T11:29:59.115Z,14.90
2023-03-30T11:32:38.598Z,14.70
2023-03-30T11:35:24.438Z,14.80
2023-03-30T11:38:08.831Z,15.00
2023-03-30T11:40:48.479Z,15.00
2023-03-30T11:43:17.221Z,14.80
2023-03-30T11:46:07.983Z,14.60
2023-03-30T11:48:49.846Z,14.50
2023-03-30T11:51:28.887Z,14.40
2023-03-30T11:53:58.795Z,14.20
2023-03-30T11:56:46.943Z,14.10
2023-03-30T11:59:31.721Z,14.00
2023-03-30T12:02:39.845Z,13.90
2023-03-30T12:05:17.496Z,13.80
2023-03-30T12:08:03.813Z,13.80
2023-03-30T12:10:39.998Z,14.10
2023-03-30T12:13:13.515Z,14.30
2023-03-30T12:15:46.857Z,14.20
2023-03-30T12:18:35.738Z,14.30
2023-03-30T12:21:14.683Z,14.30
2023-03-30T12:23:54.689Z,14.40
2023-03-30T12:26:34.347Z,14.60
2023-03-30T12:29:48.168Z,14.40
2023-03-30T12:32:04.793Z,14.50
2023-03-30T12:34:37.065Z,14.60
2023-03-30T12:37:22.444Z,14.60
2023-03-30T12:39:49.571Z,14.50
2023-03-30T12:42:26.254Z,14.50
2023-03-30T12:45:08.025Z,14.60
2023-03-30T12:47:52.744Z,14.70
2023-03-30T12:50:38.604Z,14.70
2023-03-30T12:53:14.487Z,14.70
2023-03-30T12:55:54.203Z,14.60
2023-03-30T12:58:39.837Z,14.70
2023-03-30T13:01:28.055Z,14.70
2023-03-30T13:04:07.789Z,14.80
2023-03-30T13:06:47.586Z,14.90
2023-03-30T13:09:21.638Z,15.00
2023-03-30T13:11:54.373Z,15.00
2023-03-30T13:14:41.470Z,14.80
2023-03-30T13:17:19.618Z,14.80
2023-03-30T13:20:18.478Z,14.90
2023-03-30T13:23:10.395Z,14.90
2023-03-30T13:26:03.334Z,15.00
2023-03-30T13:28:36.196Z,15.20
2023-03-30T13:31:42.919Z,15.30
2023-03-30T13:34:28.616Z,15.40
2023-03-30T13:37:01.186Z,15.40
2023-03-30T13:39:39.905Z,15.30
2023-03-30T13:42:54.372Z,15.20
2023-03-30T13:46:21.071Z,15.10
2023-03-30T13:49:16.194Z,15.10
2023-03-30T13:51:44.227Z,15.10
2023-03-30T13:54:17.822Z,14.90
2023-03-30T13:56:52.379Z,15.00
2023-03-30T13:59:26.366Z,15.10
2023-03-30T14:01:56.800Z,15.00
2023-03-30T14:04:28.468Z,15.00
2023-03-30T14:06:58.629Z,14.90
2023-03-30T14:09:28.784Z,14.90
2023-03-30T14:11:59.033Z,15.00
2023-03-30T14:14:26.045Z,14.90
2023-03-30T14:16:53.021Z,14.90
2023-03-30T14:19:31.023Z,14.90
2023-03-30T14:22:02.783Z,14.90
2023-03-30T14:24:34.143Z,15.00
2023-03-30T14:27:12.431Z,15.10
2023-03-30T14:29:50.974Z,15.00
2023-03-30T14:32:23.186Z,15.00
2023-03-30T14:34:52.399Z,15.00
2023-03-30T14:37:21.904Z,15.00
2023-03-30T14:39:55.866Z,14.90
2023-03-30T14:42:27.684Z,14.90
2023-03-30T14:44:56.958Z,14.90
2023-03-30T14:47:28.752Z,14.90
2023-03-30T14:50:03.212Z,15.00
2023-03-30T14:52:44.537Z,15.00
2023-03-30T14:55:23.956Z,15.00
2023-03-30T14:57:51.641Z,15.00
2023-03-30T15:00:21.807Z,15.10
2023-03-30T15:03:00.587Z,15.10
2023-03-30T15:05:32.806Z,15.10
2023-03-30T15:08:02.092Z,15.10
2023-03-30T15:10:49.752Z,15.10
2023-03-30T15:13:33.194Z,15.10
2023-03-30T15:16:01.259Z,15.10
2023-03-30T15:18:31.460Z,15.10
2023-03-30T15:20:59.529Z,15.10
2023-03-30T15:23:36.280Z,15.10
2023-03-30T15:26:06.782Z,15.10
2023-03-30T15:28:43.195Z,15.00
2023-03-30T15:31:12.975Z,15.00
2023-03-30T15:34:01.273Z,14.90
2023-03-30T15:36:34.296Z,14.90
2023-03-30T15:39:01.322Z,14.90
2023-03-30T15:41:47.694Z,14.80
2023-03-30T15:44:22.106Z,14.80
2023-03-30T15:46:50.523Z,14.80
2023-03-30T15:49:20.770Z,14.90
2023-03-30T15:51:52.505Z,14.90
2023-03-30T15:54:51.799Z,14.90
2023-03-30T15:57:25.136Z,15.20
2023-03-30T16:00:08.816Z,14.90
2023-03-30T16:02:39.613Z,14.90
2023-03-30T16:05:15.987Z,14.90
2023-03-30T16:07:42.976Z,14.90
2023-03-30T16:10:16.968Z,14.90
2023-03-30T16:12:48.153Z,14.80
2023-03-30T16:15:17.688Z,14.80
2023-03-30T16:17:45.587Z,14.80
2023-03-30T16:20:26.721Z,14.80
2023-03-30T16:22:53.613Z,14.70
2023-03-30T16:25:34.004Z,14.70
2023-03-30T16:28:16.477Z,14.60
2023-03-30T16:30:46.462Z,14.60
2023-03-30T16:33:14.510Z,14.50
2023-03-30T16:35:41.874Z,14.40
2023-03-30T16:38:19.209Z,14.30
2023-03-30T16:40:50.633Z,14.20
2023-03-30T16:43:17.632Z,14.00
2023-03-30T16:45:44.579Z,13.90
2023-03-30T16:48:15.664Z,13.80
2023-03-30T16:50:45.767Z,13.80
2023-03-30T16:53:12.929Z,13.70
2023-03-30T16:55:40.901Z,13.70
2023-03-30T16:58:09.640Z,13.60
2023-03-30T17:00:44.150Z,13.50
2023-03-30T17:03:11.564Z,13.50
2023-03-30T17:05:39.357Z,13.40
2023-03-30T17:08:28.427Z,13.30
2023-03-30T17:11:00.810Z,13.30
2023-03-30T17:13:28.620Z,13.20
2023-03-30T17:15:57.026Z,13.20
2023-03-30T17:18:24.914Z,13.10
2023-03-30T17:20:54.710Z,13.10
2023-03-30T17:23:24.200Z,13.10
2023-03-30T17:25:53.047Z,13.00
2023-03-30T17:28:22.214Z,13.00
2023-03-30T17:30:50.989Z,12.90
2023-03-30T17:33:19.506Z,12.90
2023-03-30T17:35:51.041Z,12.90
2023-03-30T17:38:19.123Z,12.90
2023-03-30T17:40:47.139Z,12.80
2023-03-30T17:43:15.116Z,12.80
2023-03-30T17:45:43.550Z,12.80
2023-03-30T17:48:17.780Z,12.80
2023-03-30T17:50:48.122Z,12.70
2023-03-30T17:53:17.533Z,12.60
2023-03-30T17:55:47.187Z,12.60
2023-03-30T17:58:26.778Z,12.50
2023-03-30T18:00:54.889Z,12.50
2023-03-30T18:03:24.046Z,12.40
2023-03-30T18:05:52.593Z,12.40
2023-03-30T18:08:22.865Z,12.30
2023-03-30T18:10:53.298Z,12.30
2023-03-30T18:13:41.909Z,12.20
2023-03-30T18:16:13.448Z,12.20
2023-03-30T18:18:42.821Z,12.20
2023-03-30T18:21:13.359Z,12.20
2023-03-30T18:23:41.261Z,12.10
2023-03-30T18:26:12.360Z,12.10
2023-03-30T18:28:44.587Z,12.20
2023-03-30T18:31:12.800Z,12.10
2023-03-30T18:33:40.911Z,12.10
2023-03-30T18:36:13.304Z,12.20
2023-03-30T18:38:41.603Z,12.20
2023-03-30T18:41:13.591Z,12.20
2023-03-30T18:43:41.505Z,12.20
2023-03-30T18:46:13.036Z,12.20
2023-03-30T18:48:40.687Z,12.10
2023-03-30T18:51:12.526Z,12.10
2023-03-30T18:53:40.176Z,12.00
2023-03-30T18:56:11.383Z,12.00
2023-03-30T18:58:42.569Z,12.00
2023-03-30T19:01:13.857Z,11.90
2023-03-30T19:03:42.564Z,11.90
2023-03-30T19:06:14.321Z,11.80
2023-03-30T19:08:44.672Z,11.80
2023-03-30T19:11:23.799Z,11.80
2023-03-30T19:14:01.779Z,11.70
2023-03-30T19:16:30.029Z,11.60
2023-03-30T19:18:59.305Z,11.60
2023-03-30T19:21:26.772Z,11.50
2023-03-30T19:23:57.085Z,11.50
2023-03-30T19:26:25.078Z,11.50
2023-03-30T19:28:52.953Z,11.50
2023-03-30T19:31:20.180Z,11.40
2023-03-30T19:33:48.623Z,11.30
2023-03-30T19:36:16.640Z,11.20
2023-03-30T19:38:44.681Z,11.20
2023-03-30T19:41:12.423Z,11.30
2023-03-30T19:43:40.316Z,11.30
2023-03-30T19:46:09.178Z,11.40
2023-03-30T19:48:37.121Z,11.40
2023-03-30T19:51:05.438Z,11.40
2023-03-30T19:53:33.550Z,11.40
2023-03-30T19:56:01.185Z,11.40
2023-03-30T19:58:28.915Z,11.30
2023-03-30T20:00:57.832Z,11.30
2023-03-30T20:03:27.159Z,11.30
2023-03-30T20:05:54.814Z,11.30
2023-03-30T20:08:24.698Z,11.30
2023-03-30T20:10:52.677Z,11.20
2023-03-30T20:13:24.654Z,11.20
2023-03-30T20:15:56.503Z,11.20
2023-03-30T20:18:24.199Z,11.20
2023-03-30T20:20:51.392Z,11.20
2023-03-30T20:23:18.885Z,11.20
2023-03-30T20:25:50.525Z,11.20
2023-03-30T20:28:18.341Z,11.20
2023-03-30T20:30:46.413Z,11.20
2023-03-30T20:33:13.915Z,11.20
2023-03-30T20:35:41.092Z,11.20
2023-03-30T20:38:08.550Z,11.20
2023-03-30T20:40:35.899Z,11.20
2023-03-30T20:43:03.422Z,11.20
2023-03-30T20:45:31.310Z,11.20
2023-03-30T20:47:59.830Z,11.20
2023-03-30T20:50:27.255Z,11.10
2023-03-30T20:52:54.415Z,11.10
2023-03-30T20:55:21.430Z,11.00
2023-03-30T20:57:48.410Z,11.00
2023-03-30T21:00:15.869Z,11.00
2023-03-30T21:02:42.932Z,11.00
2023-03-30T21:05:10.015Z,11.10
2023-03-30T21:07:38.396Z,11.00
2023-03-30T21:10:06.114Z,11.10
2023-03-30T21:12:33.105Z,11.10
2023-03-30T21:15:00.028Z,11.00
2023-03-30T21:17:27.077Z,11.00
2023-03-30T21:19:53.964Z,11.00
2023-03-30T21:22:21.498Z,11.00
2023-03-30T21:24:48.391Z,11.00
2023-03-30T21:27:15.701Z,11.00
2023-03-30T21:29:42.591Z,10.90
2023-03-30T21:32:09.490Z,10.80
2023-03-30T21:34:36.366Z,10.80
2023-03-30T21:37:03.457Z,10.80
2023-03-30T21:39:30.556Z,10.70
2023-03-30T21:41:57.412Z,10.80
2023-03-30T21:44:24.369Z,10.80
2023-03-30T21:46:51.317Z,10.80
2023-03-30T21:49:18.322Z,10.90
2023-03-30T21:51:45.957Z,10.80
2023-03-30T21:54:14.068Z,10.80
2023-03-30T21:56:40.979Z,10.80
2023-03-30T21:59:08.002Z,10.80
2023-03-30T22:01:35.522Z,10.80
2023-03-30T22:04:05.366Z,10.70
2023-03-30T22:06:33.141Z,10.70
2023-03-30T22:09:00.160Z,10.70
2023-03-30T22:11:27.121Z,10.70
2023-03-30T22:13:55.398Z,10.70
2023-03-30T22:16:35.087Z,10.60
2023-03-30T22:19:03.067Z,10.60
2023-03-30T22:21:34.436Z,10.70
2023-03-30T22:24:03.230Z,10.70
2023-03-30T22:26:30.467Z,10.70
2023-03-30T22:28:57.510Z,10.70
2023-03-30T22:31:24.834Z,10.70
2023-03-30T22:33:53.260Z,10.70
2023-03-30T22:36:22.532Z,10.70
2023-03-30T22:38:51.258Z,10.60
2023-03-30T22:41:23.812Z,10.60
2023-03-30T22:43:52.543Z,10.60
2023-03-30T22:46:19.880Z,10.60
2023-03-30T22:48:49.112Z,10.60
2023-03-30T22:51:23.587Z,10.60
2023-03-30T22:53:50.847Z,10.60
2023-03-30T22:56:17.808Z,10.60
2023-03-30T22:58:44.726Z,10.70
2023-03-30T23:01:12.180Z,10.70
2023-03-30T23:03:39.432Z,10.70
2023-03-30T23:06:06.714Z,10.60
2023-03-30T23:08:33.997Z,10.60
2023-03-30T23:11:06.879Z,10.60
2023-03-30T23:13:38.087Z,10.50
2023-03-30T23:16:06.762Z,10.40
2023-03-30T23:18:34.723Z,10.30
2023-03-30T23:21:06.347Z,10.30
2023-03-30T23:23:37.460Z,10.30
2023-03-30T23:26:08.733Z,10.40
2023-03-30T23:28:40.322Z,10.40
2023-03-30T23:31:16.711Z,10.40
2023-03-30T23:33:44.012Z,10.40
2023-03-30T23:36:17.331Z,10.40
2023-03-30T23:38:44.752Z,10.40
2023-03-30T23:41:17.456Z,10.30
2023-03-30T23:43:44.880Z,10.30
2023-03-30T23:46:13.513Z,10.30
2023-03-30T23:48:40.647Z,10.30
2023-03-30T23:51:07.929Z,10.40
2023-03-30T23:53:35.175Z,10.40
2023-03-30T23:56:06.451Z,10.30
2023-03-30T23:58:33.860Z,10.30
